createdAt,value
2019-02-08T00:00:34.237Z,77.27
2019-02-08T00:03:01.803Z,77.16
2019-02-08T00:05:29.324Z,77.15
2019-02-08T00:07:56.884Z,77.02
2019-02-08T00:10:24.524Z,76.85
2019-02-08T00:12:52.184Z,76.76
2019-02-08T00:15:20.176Z,76.80
2019-02-08T00:17:48.476Z,76.76
2019-02-08T00:20:16.224Z,76.76
2019-02-08T00:22:43.805Z,76.68
2019-02-08T00:25:13.504Z,76.90
2019-02-08T00:30:18.542Z,76.89
2019-02-08T00:32:45.944Z,76.87
2019-02-08T00:35:13.700Z,76.96
2019-02-08T00:37:41.086Z,76.98
2019-02-08T00:40:10.405Z,77.01
2019-02-08T00:42:37.822Z,76.97
2019-02-08T00:45:05.881Z,77.07
2019-02-08T00:47:33.771Z,77.05
2019-02-08T00:50:01.236Z,76.96
2019-02-08T00:52:28.721Z,77.32
2019-02-08T00:54:56.095Z,77.64
2019-02-08T00:57:23.656Z,77.54
2019-02-08T00:59:51.160Z,77.54
2019-02-08T01:02:18.658Z,77.37
2019-02-08T01:04:46.133Z,77.38
2019-02-08T01:07:13.932Z,77.44
2019-02-08T01:09:41.411Z,77.33
2019-02-08T01:12:08.896Z,77.36
2019-02-08T01:14:36.302Z,77.49
2019-02-08T01:17:03.926Z,77.37
2019-02-08T01:19:31.289Z,77.30
2019-02-08T01:21:58.713Z,77.12
2019-02-08T01:24:26.160Z,77.36
2019-02-08T01:26:53.629Z,77.33
2019-02-08T01:29:21.017Z,77.30
2019-02-08T01:31:48.473Z,77.28
2019-02-08T01:34:16.041Z,77.32
2019-02-08T01:36:48.355Z,77.57
2019-02-08T01:39:23.286Z,77.61
2019-02-08T01:41:50.906Z,77.59
2019-02-08T01:44:18.716Z,77.56
2019-02-08T01:46:47.571Z,77.55
2019-02-08T01:49:15.083Z,77.63
2019-02-08T01:51:45.491Z,77.62
2019-02-08T01:54:12.921Z,77.89
2019-02-08T01:56:40.539Z,78.09
2019-02-08T01:59:08.287Z,78.07
2019-02-08T02:01:37.067Z,78.34
2019-02-08T02:04:04.839Z,78.38
2019-02-08T02:06:32.481Z,78.40
2019-02-08T02:09:00.119Z,78.64
2019-02-08T02:11:29.315Z,78.82
2019-02-08T02:13:57.089Z,79.01
2019-02-08T02:16:24.853Z,79.02
2019-02-08T02:18:53.346Z,79.04
2019-02-08T02:21:22.345Z,79.07
2019-02-08T02:23:56.011Z,79.18
2019-02-08T02:26:19.394Z,79.32
2019-02-08T02:28:48.014Z,79.41
2019-02-08T02:31:18.037Z,79.48
2019-02-08T02:33:47.068Z,79.53
2019-02-08T02:36:14.533Z,79.58
2019-02-08T02:38:43.673Z,79.59
2019-02-08T02:41:11.196Z,79.56
2019-02-08T02:43:38.694Z,79.50
2019-02-08T02:46:06.094Z,78.94
2019-02-08T02:48:33.893Z,78.44
2019-02-08T02:51:01.311Z,77.84
2019-02-08T02:53:28.886Z,77.76
2019-02-08T02:55:56.381Z,77.59
2019-02-08T02:58:23.875Z,77.49
2019-02-08T03:00:55.649Z,77.60
2019-02-08T03:03:23.270Z,77.59
2019-02-08T03:05:50.946Z,77.62
2019-02-08T03:08:18.525Z,77.54
2019-02-08T03:10:46.276Z,77.69
2019-02-08T03:13:13.843Z,77.70
2019-02-08T03:15:41.416Z,77.59
2019-02-08T03:18:09.255Z,77.57
2019-02-08T03:20:36.699Z,77.60
2019-02-08T03:23:07.265Z,77.68
2019-02-08T03:25:35.011Z,77.76
2019-02-08T03:28:02.534Z,77.79
2019-02-08T03:30:44.892Z,77.75
2019-02-08T03:33:12.566Z,77.75
2019-02-08T03:35:42.040Z,77.72
2019-02-08T03:38:09.838Z,77.82
2019-02-08T03:40:37.277Z,77.76
2019-02-08T03:43:05.220Z,77.78
2019-02-08T03:45:37.241Z,77.81
2019-02-08T03:48:05.106Z,77.72
2019-02-08T03:50:32.604Z,77.88
2019-02-08T03:53:00.249Z,78.09
2019-02-08T03:55:27.879Z,78.01
2019-02-08T03:57:55.553Z,78.29
2019-02-08T04:00:31.230Z,78.35
2019-02-08T04:02:58.846Z,78.28
2019-02-08T04:05:26.672Z,78.45
2019-02-08T04:07:54.340Z,78.45
2019-02-08T04:10:22.059Z,78.58
2019-02-08T04:12:49.614Z,78.66
2019-02-08T04:15:17.664Z,78.62
2019-02-08T04:17:45.267Z,78.64
2019-02-08T04:20:14.385Z,78.85
2019-02-08T04:22:42.090Z,78.78
2019-02-08T04:25:10.209Z,79.04
2019-02-08T04:27:37.892Z,79.00
2019-02-08T04:30:09.315Z,78.92
2019-02-08T04:32:36.756Z,79.08
2019-02-08T04:35:04.772Z,79.44
2019-02-08T04:37:32.532Z,79.95
2019-02-08T04:40:00.064Z,81.00
2019-02-08T04:42:27.813Z,82.08
2019-02-08T04:44:55.354Z,82.78
2019-02-08T04:47:22.888Z,82.18
2019-02-08T04:49:50.601Z,82.24
2019-02-08T04:52:18.076Z,82.30
2019-02-08T04:54:45.819Z,82.25
2019-02-08T04:57:13.371Z,83.37
2019-02-08T04:59:40.960Z,84.11
2019-02-08T05:02:08.406Z,84.90
2019-02-08T05:04:36.821Z,84.88
2019-02-08T05:07:04.470Z,85.40
2019-02-08T05:09:32.117Z,85.50
2019-02-08T05:11:59.541Z,85.76
2019-02-08T05:14:27.081Z,86.11
2019-02-08T05:16:54.786Z,86.24
2019-02-08T05:19:22.402Z,86.05
2019-02-08T05:21:49.963Z,85.84
2019-02-08T05:24:17.819Z,85.58
2019-02-08T05:26:45.413Z,85.40
2019-02-08T05:29:12.910Z,85.58
2019-02-08T05:31:40.271Z,85.24
2019-02-08T05:34:07.794Z,85.09
2019-02-08T05:36:35.270Z,84.86
2019-02-08T05:39:05.242Z,84.69
2019-02-08T05:41:32.881Z,84.57
2019-02-08T05:44:00.660Z,84.26
2019-02-08T05:46:28.297Z,84.43
2019-02-08T05:48:55.844Z,84.86
2019-02-08T05:51:23.391Z,84.55
2019-02-08T05:53:50.831Z,84.20
2019-02-08T05:56:18.274Z,84.56
2019-02-08T05:58:45.926Z,83.62
2019-02-08T06:01:13.394Z,83.75
2019-02-08T06:03:43.196Z,83.50
2019-02-08T06:06:10.904Z,83.45
2019-02-08T06:08:38.451Z,83.69
2019-02-08T06:11:06.021Z,83.19
2019-02-08T06:13:33.490Z,83.23
2019-02-08T06:16:01.000Z,83.08
2019-02-08T06:18:28.481Z,83.03
2019-02-08T06:20:56.020Z,82.93
2019-02-08T06:23:23.459Z,82.86
2019-02-08T06:25:51.039Z,82.74
2019-02-08T06:28:18.481Z,82.67
2019-02-08T06:30:45.981Z,82.36
2019-02-08T06:33:13.360Z,82.69
2019-02-08T06:35:40.998Z,83.05
2019-02-08T06:38:08.390Z,83.35
2019-02-08T06:40:41.406Z,83.71
2019-02-08T06:43:09.174Z,84.43
2019-02-08T06:45:38.561Z,84.76
2019-02-08T06:48:07.244Z,85.54
2019-02-08T06:50:34.755Z,85.91
2019-02-08T06:53:02.171Z,86.50
2019-02-08T06:55:29.815Z,86.80
2019-02-08T06:58:15.332Z,86.52
2019-02-08T07:00:59.034Z,86.65
2019-02-08T07:03:46.026Z,86.38
2019-02-08T07:06:50.945Z,86.40
2019-02-08T07:09:44.110Z,85.82
2019-02-08T07:12:27.100Z,86.62
2019-02-08T07:15:12.976Z,85.83
2019-02-08T07:17:59.711Z,86.00
2019-02-08T07:20:48.159Z,85.77
2019-02-08T07:23:33.715Z,85.38
2019-02-08T07:26:17.334Z,84.95
2019-02-08T07:29:01.040Z,84.56
2019-02-08T07:32:00.330Z,83.98
2019-02-08T07:34:47.301Z,83.76
2019-02-08T07:37:43.536Z,83.63
2019-02-08T07:40:43.758Z,83.22
2019-02-08T07:43:40.666Z,82.73
2019-02-08T07:46:13.789Z,82.26
2019-02-08T07:49:01.050Z,82.53
2019-02-08T07:51:41.371Z,81.77
2019-02-08T07:54:40.690Z,81.97
2019-02-08T07:57:40.174Z,81.73
2019-02-08T08:00:39.261Z,81.62
2019-02-08T08:03:36.706Z,81.83
2019-02-08T08:06:24.470Z,81.25
2019-02-08T08:09:14.926Z,81.21
2019-02-08T08:11:57.541Z,81.25
2019-02-08T08:14:44.746Z,80.49
2019-02-08T08:17:35.381Z,80.43
2019-02-08T08:20:16.101Z,80.12
2019-02-08T08:22:59.509Z,80.00
2019-02-08T08:26:02.575Z,79.73
2019-02-08T08:28:48.525Z,79.68
2019-02-08T08:31:23.816Z,79.66
2019-02-08T08:34:07.216Z,79.38
2019-02-08T08:37:24.733Z,79.47
2019-02-08T08:40:40.932Z,79.49
2019-02-08T08:50:33.544Z,78.22
2019-02-08T08:53:38.691Z,77.76
2019-02-08T08:56:31.795Z,77.49
2019-02-08T09:00:08.471Z,77.39
2019-02-08T09:04:03.291Z,77.38
2019-02-08T09:07:01.243Z,77.22
2019-02-08T09:10:41.135Z,77.00
2019-02-08T09:13:32.411Z,77.10
2019-02-08T09:16:28.886Z,77.34
2019-02-08T09:19:44.876Z,76.86
2019-02-08T09:22:56.855Z,76.91
2019-02-08T09:26:43.573Z,76.52
2019-02-08T09:33:50.134Z,75.84
2019-02-08T09:36:48.385Z,75.98
2019-02-08T09:39:45.926Z,75.69
2019-02-08T09:44:22.457Z,75.53
2019-02-08T09:46:28.661Z,75.81
2019-02-08T09:49:35.739Z,75.68
2019-02-08T09:52:29.615Z,75.41
2019-02-08T09:55:39.317Z,75.09
2019-02-08T09:58:40.625Z,75.23
2019-02-08T10:02:13.636Z,74.83
2019-02-08T10:09:34.274Z,74.79
2019-02-08T10:12:52.630Z,75.01
2019-02-08T10:15:52.022Z,75.48
2019-02-08T10:19:50.448Z,76.03
2019-02-08T10:23:41.860Z,75.94
2019-02-08T10:27:00.874Z,77.29
2019-02-08T10:33:39.092Z,77.62
2019-02-08T10:36:59.755Z,76.86
2019-02-08T10:39:57.872Z,77.00
2019-02-08T10:47:38.314Z,76.24
2019-02-08T10:50:31.346Z,75.26
2019-02-08T10:53:32.507Z,74.36
2019-02-08T10:56:36.625Z,74.21
2019-02-08T10:59:40.386Z,73.95
2019-02-08T11:03:00.897Z,73.13
2019-02-08T11:06:04.440Z,73.12
2019-02-08T11:09:13.906Z,72.95
2019-02-08T11:12:31.306Z,72.45
2019-02-08T11:15:52.321Z,72.47
2019-02-08T11:18:44.543Z,72.56
2019-02-08T11:21:11.976Z,72.67
2019-02-08T11:23:39.506Z,72.51
2019-02-08T11:26:07.421Z,72.44
2019-02-08T11:28:37.722Z,72.37
2019-02-08T11:31:05.323Z,72.09
2019-02-08T11:33:33.031Z,72.47
2019-02-08T11:36:02.691Z,72.30
2019-02-08T11:38:30.116Z,72.13
2019-02-08T11:40:57.601Z,71.91
2019-02-08T11:43:26.939Z,71.65
2019-02-08T11:45:54.520Z,71.79
2019-02-08T11:48:25.373Z,71.61
2019-02-08T11:51:04.356Z,71.73
2019-02-08T11:53:31.955Z,71.99
2019-02-08T11:55:59.470Z,72.00
2019-02-08T11:58:29.452Z,71.65
2019-02-08T12:00:59.166Z,71.73
2019-02-08T12:03:26.827Z,71.67
2019-02-08T12:05:54.636Z,71.19
2019-02-08T12:08:22.191Z,70.94
2019-02-08T12:10:49.721Z,71.63
2019-02-08T12:13:17.120Z,71.63
2019-02-08T12:15:44.753Z,71.35
2019-02-08T12:18:12.245Z,71.15
2019-02-08T12:20:52.419Z,71.30
2019-02-08T12:23:23.579Z,71.03
2019-02-08T12:25:47.049Z,71.11
2019-02-08T12:28:14.586Z,70.97
2019-02-08T12:30:42.501Z,70.90
2019-02-08T12:33:09.911Z,71.35
2019-02-08T12:35:37.367Z,71.09
2019-02-08T12:38:04.765Z,71.15
2019-02-08T12:40:32.212Z,71.24
2019-02-08T12:42:59.683Z,71.17
2019-02-08T12:45:27.142Z,71.01
2019-02-08T12:47:54.527Z,71.13
2019-02-08T12:50:22.491Z,71.27
2019-02-08T12:52:49.993Z,71.23
2019-02-08T12:55:18.711Z,71.35
2019-02-08T12:57:46.081Z,71.05
2019-02-08T13:00:16.278Z,71.26
2019-02-08T13:02:43.681Z,71.37
2019-02-08T13:05:12.140Z,71.24
2019-02-08T13:07:40.946Z,71.67
2019-02-08T13:10:11.726Z,71.56
2019-02-08T13:12:39.551Z,71.98
2019-02-08T13:15:08.240Z,72.18
2019-02-08T13:17:35.645Z,72.31
2019-02-08T13:20:03.766Z,72.19
2019-02-08T13:22:36.866Z,72.09
2019-02-08T13:25:05.626Z,72.57
2019-02-08T13:27:33.086Z,72.77
2019-02-08T13:30:00.521Z,73.05
2019-02-08T13:32:27.966Z,73.06
2019-02-08T13:34:55.396Z,73.12
2019-02-08T13:37:22.841Z,73.10
2019-02-08T13:39:50.244Z,73.05
2019-02-08T13:42:17.671Z,73.12
2019-02-08T13:44:45.287Z,72.85
2019-02-08T13:47:18.074Z,72.77
2019-02-08T13:49:45.716Z,72.85
2019-02-08T13:52:13.271Z,72.99
2019-02-08T13:54:40.786Z,72.75
2019-02-08T13:57:08.222Z,72.94
2019-02-08T13:59:35.601Z,72.71
2019-02-08T14:02:03.261Z,72.95
2019-02-08T14:04:30.687Z,72.97
2019-02-08T14:06:58.156Z,72.79
2019-02-08T14:09:25.641Z,72.79
2019-02-08T14:11:53.181Z,73.03
2019-02-08T14:14:20.606Z,72.78
2019-02-08T14:16:48.042Z,72.65
2019-02-08T14:19:15.432Z,72.76
2019-02-08T14:21:43.003Z,72.76
2019-02-08T14:24:10.412Z,72.78
2019-02-08T14:26:37.786Z,72.88
2019-02-08T14:29:05.249Z,72.94
2019-02-08T14:31:32.767Z,72.89
2019-02-08T14:34:00.201Z,72.71
2019-02-08T14:36:27.707Z,72.67
2019-02-08T14:38:55.172Z,72.88
2019-02-08T14:41:22.567Z,72.75
2019-02-08T14:43:49.982Z,72.73
2019-02-08T14:46:17.366Z,72.67
2019-02-08T14:48:44.823Z,72.72
2019-02-08T14:51:12.222Z,72.50
2019-02-08T14:53:39.661Z,72.59
2019-02-08T14:56:07.051Z,72.60
2019-02-08T14:58:34.501Z,72.60
2019-02-08T15:01:01.886Z,72.80
2019-02-08T15:03:29.351Z,72.84
2019-02-08T15:05:56.901Z,72.60
2019-02-08T15:08:24.476Z,72.74
2019-02-08T15:10:51.991Z,73.00
2019-02-08T15:13:19.436Z,72.72
2019-02-08T15:15:46.866Z,72.71
2019-02-08T15:18:18.738Z,72.77
2019-02-08T15:20:53.537Z,72.81
2019-02-08T15:23:30.954Z,72.76
2019-02-08T15:26:02.135Z,72.81
2019-02-08T15:28:33.931Z,72.93
2019-02-08T15:31:04.558Z,73.07
2019-02-08T15:33:39.061Z,73.20
2019-02-08T15:36:10.876Z,73.14
2019-02-08T15:38:38.806Z,73.33
2019-02-08T15:41:17.516Z,73.40
2019-02-08T15:43:48.449Z,73.46
2019-02-08T15:46:16.334Z,73.63
2019-02-08T15:48:44.180Z,73.59
2019-02-08T15:51:21.913Z,73.70
2019-02-08T15:54:14.201Z,73.47
2019-02-08T15:57:14.165Z,73.69
2019-02-08T15:59:43.529Z,73.52
2019-02-08T16:02:15.646Z,73.55
2019-02-08T16:05:17.302Z,73.49
2019-02-08T16:07:45.726Z,73.31
2019-02-08T16:10:23.371Z,73.46
2019-02-08T16:13:05.441Z,73.48
2019-02-08T16:15:39.209Z,73.25
2019-02-08T16:18:15.201Z,73.13
2019-02-08T16:21:08.295Z,73.25
2019-02-08T16:24:02.361Z,73.29
2019-02-08T16:26:33.700Z,73.13
2019-02-08T16:29:04.220Z,73.39
2019-02-08T16:32:12.844Z,73.34
2019-02-08T16:34:44.375Z,73.21
2019-02-08T16:37:19.117Z,73.33
2019-02-08T16:39:50.169Z,73.54
2019-02-08T16:42:18.100Z,73.76
2019-02-08T16:45:01.407Z,73.71
2019-02-08T16:47:30.820Z,73.56
2019-02-08T16:50:23.534Z,73.41
2019-02-08T16:53:05.603Z,73.34
2019-02-08T16:55:38.755Z,73.45
2019-02-08T16:58:11.684Z,73.62
2019-02-08T17:05:06.959Z,73.07
2019-02-08T17:07:33.460Z,73.19
2019-02-08T17:10:12.735Z,73.19
2019-02-08T17:13:02.399Z,73.07
2019-02-08T17:15:36.966Z,72.87
2019-02-08T17:18:09.886Z,72.79
2019-02-08T17:20:46.974Z,72.86
2019-02-08T17:23:51.509Z,72.79
2019-02-08T17:26:25.184Z,72.69
2019-02-08T17:29:18.620Z,72.54
2019-02-08T17:32:09.045Z,72.51
2019-02-08T17:34:41.397Z,72.63
2019-02-08T17:37:12.129Z,72.72
2019-02-08T17:42:42.004Z,72.53
2019-02-08T17:45:15.871Z,72.53
2019-02-08T17:48:14.958Z,72.43
2019-02-08T17:50:48.315Z,72.40
2019-02-08T17:53:31.765Z,72.42
2019-02-08T17:56:18.449Z,72.46
2019-02-08T17:59:14.876Z,72.37
2019-02-08T18:01:45.695Z,72.51
2019-02-08T18:04:23.212Z,72.65
2019-02-08T18:07:03.128Z,72.51
2019-02-08T18:09:36.041Z,72.55
2019-02-08T18:12:06.275Z,72.77
2019-02-08T18:14:36.746Z,72.58
2019-02-08T18:17:04.873Z,72.77
2019-02-08T18:20:00.315Z,72.76
2019-02-08T18:22:31.836Z,72.66
2019-02-08T18:25:03.170Z,72.54
2019-02-08T18:27:50.399Z,72.89
2019-02-08T18:30:36.174Z,72.76
2019-02-08T18:33:03.070Z,72.60
2019-02-08T18:35:41.240Z,72.69
2019-02-08T18:38:29.121Z,72.65
2019-02-08T18:41:09.369Z,72.69
2019-02-08T18:44:02.220Z,72.68
2019-02-08T18:46:38.702Z,72.69
2019-02-08T18:49:09.771Z,72.50
2019-02-08T18:51:56.007Z,72.39
2019-02-08T18:54:24.399Z,72.44
2019-02-08T18:56:55.771Z,72.52
2019-02-08T18:59:46.321Z,72.63
2019-02-08T19:02:22.990Z,72.39
2019-02-08T19:04:51.362Z,72.53
2019-02-08T19:07:19.861Z,72.21
2019-02-08T19:09:50.052Z,72.14
2019-02-08T19:12:24.416Z,72.08
2019-02-08T19:14:58.280Z,72.11
2019-02-08T19:17:29.491Z,72.07
2019-02-08T19:20:02.276Z,72.08
2019-02-08T19:23:04.670Z,71.85
2019-02-08T19:25:46.471Z,71.98
2019-02-08T19:28:17.366Z,71.85
2019-02-08T19:31:14.465Z,71.81
2019-02-08T19:33:56.562Z,71.82
2019-02-08T19:36:39.690Z,71.68
2019-02-08T19:39:30.855Z,71.70
2019-02-08T19:42:09.735Z,71.72
2019-02-08T19:44:43.331Z,71.78
2019-02-08T19:47:19.458Z,71.56
2019-02-08T19:49:49.391Z,71.63
2019-02-08T19:52:29.538Z,71.64
2019-02-08T19:55:02.949Z,71.73
2019-02-08T19:57:38.555Z,71.49
2019-02-08T20:00:16.491Z,71.29
2019-02-08T20:03:06.815Z,71.53
2019-02-08T20:05:35.511Z,71.06
2019-02-08T20:08:21.048Z,71.39
2019-02-08T20:11:10.730Z,71.54
2019-02-08T20:13:54.234Z,71.67
2019-02-08T20:16:27.582Z,71.42
2019-02-08T20:19:01.111Z,71.25
2019-02-08T20:21:36.435Z,71.32
2019-02-08T20:24:17.211Z,71.42
2019-02-08T20:26:48.138Z,71.52
2019-02-08T20:29:17.104Z,71.72
2019-02-08T20:31:55.829Z,71.61
2019-02-08T20:34:28.250Z,71.55
2019-02-08T20:37:05.155Z,71.51
2019-02-08T20:39:42.219Z,71.61
2019-02-08T20:42:19.745Z,71.60
2019-02-08T20:44:45.343Z,71.82
2019-02-08T20:47:13.970Z,71.56
2019-02-08T20:49:43.690Z,71.89
2019-02-08T20:52:14.699Z,71.82
2019-02-08T20:54:51.389Z,71.66
2019-02-08T20:57:19.892Z,71.74
2019-02-08T21:00:01.120Z,72.02
2019-02-08T21:02:32.326Z,71.82
2019-02-08T21:05:01.612Z,71.88
2019-02-08T21:07:30.036Z,72.23
2019-02-08T21:10:07.410Z,71.89
2019-02-08T21:12:41.665Z,71.77
2019-02-08T21:15:30.151Z,71.65
2019-02-08T21:18:11.501Z,71.72
2019-02-08T21:20:49.045Z,71.49
2019-02-08T21:23:23.101Z,71.67
2019-02-08T21:26:08.301Z,71.51
2019-02-08T21:28:42.105Z,71.31
2019-02-08T21:31:10.430Z,71.31
2019-02-08T21:33:38.830Z,71.16
2019-02-08T21:36:23.571Z,71.35
2019-02-08T21:38:58.819Z,71.25
2019-02-08T21:41:28.311Z,71.09
2019-02-08T21:44:00.050Z,71.34
2019-02-08T21:46:38.141Z,71.32
2019-02-08T21:49:12.242Z,71.12
2019-02-08T21:51:52.626Z,71.12
2019-02-08T21:54:23.100Z,71.12
2019-02-08T21:57:07.409Z,71.30
2019-02-08T21:59:58.255Z,71.30
2019-02-08T22:03:05.844Z,71.04
2019-02-08T22:05:42.436Z,71.07
2019-02-08T22:08:37.493Z,71.03
2019-02-08T22:11:20.355Z,71.17
2019-02-08T22:17:40.161Z,71.08
2019-02-08T22:20:10.326Z,71.00
2019-02-08T22:22:37.811Z,71.02
2019-02-08T22:25:06.872Z,70.84
2019-02-08T22:27:34.261Z,70.96
2019-02-08T22:30:01.741Z,70.88
2019-02-08T22:32:29.134Z,70.84
2019-02-08T22:34:56.551Z,70.69
2019-02-08T22:37:24.020Z,70.66
2019-02-08T22:39:51.373Z,70.75
2019-02-08T22:42:18.826Z,70.53
2019-02-08T22:44:46.276Z,70.62
2019-02-08T22:47:13.706Z,70.54
2019-02-08T22:49:41.576Z,70.64
2019-02-08T22:52:09.021Z,70.48
2019-02-08T22:54:36.386Z,70.59
2019-02-08T22:57:03.915Z,70.22
2019-02-08T22:59:32.026Z,70.20
2019-02-08T23:01:59.768Z,70.36
2019-02-08T23:04:32.046Z,70.31
2019-02-08T23:06:59.686Z,70.38
2019-02-08T23:09:27.473Z,70.33
2019-02-08T23:12:00.667Z,70.18
2019-02-08T23:14:28.101Z,70.19
2019-02-08T23:16:56.310Z,70.37
2019-02-08T23:19:23.960Z,70.04
2019-02-08T23:21:58.235Z,69.94
2019-02-08T23:24:25.595Z,70.14
2019-02-08T23:26:53.031Z,70.07
2019-02-08T23:29:20.571Z,70.27
2019-02-08T23:31:47.993Z,70.11
2019-02-08T23:34:15.370Z,70.08
2019-02-08T23:36:51.160Z,70.00
2019-02-08T23:39:41.076Z,70.00
2019-02-08T23:42:07.166Z,70.11
2019-02-08T23:44:36.829Z,70.03
2019-02-08T23:47:33.335Z,69.93
2019-02-08T23:50:07.329Z,69.88
2019-02-08T23:52:45.222Z,69.92
2019-02-08T23:55:13.442Z,69.96
2019-02-08T23:57:47.464Z,69.85
